KFXE/FXE METAR and TAF weather

Enter ICAO airport designator
Station Type Date Time Source
KFXE METAR 2021/09/25 01:53 UTC NOAA

KFXE 250153Z 00000KT 10SM VCTS FEW049 BKN080 25/23 A2997 RMK AO2 RAB24E40 SLP151 P0000 T02500233


Station Type Date Time Source
KFXE Decoded METAR 2021/09/25 01:53 UTC NOAA

FORT LAUDERDALE EXECUTIVE, FL, United States (KFXE) 26-12N 080-11W 6M
Sep 24, 2021 - 09:53 PM EDT / 2021.09.25 0153 UTC
Wind: Calm:0
Visibility: 10 mile(s):0
Sky conditions: mostly cloudy
Weather: thunder in the vicinity
Precipitation last hour: A trace
Temperature: 77.0 F (25.0 C)
Dew Point: 73.9 F (23.3 C)
Relative Humidity: 90%
Pressure (altimeter): 29.97 in. Hg (1014 hPa)
ob: KFXE 250153Z 00000KT 10SM VCTS FEW049 BKN080 25/23 A2997 RMK AO2 RAB24E40 SLP151 P0000 T02500233
cycle: 2

Station Type Date Time Source
KFXE TAF 2021/09/24 21:54 UTC NOAA

TAF
AMD KFXE 242051Z 2421/2518 14006KT P6SM VCTS SCT025CB BKN050
FM250100 VRB04KT P6SM BKN050

Example: see airport list